Darstellungsparameter: Aktuell verwendete Einstellungen:
Skalierung der Graphiken ... ?
xyx+y,   Skalierungsfaktor:      Skalierung: Modus: x, Faktor: 1
Darstellungszeitraum ... ?
Vom - - bis: - -   Zeitraum: 16.11.2010 - 16.11.2010
Min/Max/Avg-Anzeige ... ?
Zeige MMA aktuell
Zeige MMA Monat
Zeige MMA alles
Zeige --A aktuell
Zeige --A Monat
Zeige --A alles
Keine MMA-Anzeige
MMA:
Average (ber die Originaldaten)
MMA-Basis: 16.11.2010 - 16.11.2010
Quicknavigation für Darstellung... ?
Tage:      1T, 2T, 3T, 5T -1T -2T -3T -5T +1T +2T +3T +5T
Wochen: 1W, 2W, 3W -1W -2W -3W +1W +2W +3W
Monate: 1M, 3M, 6M -1M -3M -6M +1M +3M +6M
Jahre:    1J, 3J, 5J, 10J -1J -3J -5J -10J +1J +3J +5J +10J
Nutze für die Darstellung ... ?
Originaldaten oder Mittelwerte auf ...
Stundenbasis Tagesbasis Wochenbasis
Monatsbasis Jahresbasis      Datenbasis: Original-Daten
Darstellen als:
Statistik (Auto) Statistik J:M      Darstellung:
Zur Graphik,    zurück zur Übersicht aller Sensoren.
 
Tabellarische Datenbersicht: ?
 
Sensor: Nr:Datum:Temp:Abs-Feuchte:Windchill:Wind:
Aussen-T/F 1 16-11-2010 00:03:01 6.1 C 5.92 g/m*3 6.1 C 0 km/h
2 16-11-2010 00:15:02 6 C 5.95 g/m*3 6 C 0 km/h
3 16-11-2010 00:27:02 6 C 6.02 g/m*3 6 C 0 km/h
4 16-11-2010 00:39:01 5.7 C 5.91 g/m*3 5.7 C 0 km/h
5 16-11-2010 00:51:01 5.6 C 5.94 g/m*3 5.6 C 0 km/h
6 16-11-2010 01:03:01 5.5 C 5.9 g/m*3 5.5 C 0 km/h
7 16-11-2010 01:15:02 5.4 C 5.93 g/m*3 5.4 C 0 km/h
8 16-11-2010 01:27:02 5.2 C 5.85 g/m*3 5.2 C 0 km/h
9 16-11-2010 01:39:01 5 C 5.78 g/m*3 5 C 0 km/h
10 16-11-2010 01:51:02 4.9 C 5.87 g/m*3 4.9 C 0 km/h
11 16-11-2010 02:03:01 5.2 C 5.99 g/m*3 5.2 C 0 km/h
12 16-11-2010 02:15:01 5.3 C 6.03 g/m*3 5.3 C 0 km/h
13 16-11-2010 02:27:01 5.4 C 6.07 g/m*3 5.4 C 0 km/h
14 16-11-2010 02:39:01 5.7 C 6.19 g/m*3 5.7 C 0 km/h
15 16-11-2010 02:52:04 5.8 C 6.23 g/m*3 5.8 C 0 km/h
16 16-11-2010 03:04:04 5.9 C 6.27 g/m*3 5.9 C 0 km/h
17 16-11-2010 03:16:04 6.1 C 6.28 g/m*3 6.1 C 0 km/h
18 16-11-2010 03:28:04 5.9 C 6.27 g/m*3 5.9 C 0 km/h
19 16-11-2010 03:40:02 5.8 C 6.16 g/m*3 5.8 C 0 km/h
20 16-11-2010 03:52:02 5.6 C 6.08 g/m*3 5.6 C 0 km/h
21 16-11-2010 04:04:02 5.3 C 5.89 g/m*3 5.3 C 0 km/h
22 16-11-2010 04:16:02 5 C 5.84 g/m*3 5 C 0 km/h
23 16-11-2010 04:28:02 5.1 C 5.95 g/m*3 5.1 C 0 km/h
24 16-11-2010 04:40:02 5.2 C 5.99 g/m*3 5.2 C 0 km/h
25 16-11-2010 04:52:02 5.5 C 6.18 g/m*3 5.5 C 0 km/h
Sensor: Nr:Datum:Temp:Abs-Feuchte:Windchill:Wind:
Aussen-T/F 26 16-11-2010 05:04:01 5.3 C 6.03 g/m*3 5.3 C 0 km/h
27 16-11-2010 05:16:02 5.2 C 5.99 g/m*3 5.2 C 0 km/h
28 16-11-2010 05:28:02 5.7 C 6.19 g/m*3 5.7 C 0 km/h
29 16-11-2010 05:40:02 5.7 C 6.12 g/m*3 5.7 C 0 km/h
30 16-11-2010 05:52:02 5.6 C 6.01 g/m*3 5.6 C 0 km/h
31 16-11-2010 06:04:02 5.2 C 5.78 g/m*3 5.2 C 0 km/h
32 16-11-2010 06:16:02 5.1 C 5.81 g/m*3 5.1 C 0 km/h
33 16-11-2010 06:28:02 5.2 C 5.85 g/m*3 5.2 C 0 km/h
34 16-11-2010 06:40:03 5.3 C 5.89 g/m*3 5.3 C 0 km/h
35 16-11-2010 06:52:02 5.3 C 5.82 g/m*3 5.3 C 0 km/h
36 16-11-2010 07:04:01 5.2 C 5.78 g/m*3 5.2 C 0 km/h
37 16-11-2010 07:16:02 5.2 C 5.78 g/m*3 5.2 C 0 km/h
38 16-11-2010 07:28:03 5.2 C 5.78 g/m*3 5.2 C 0 km/h
39 16-11-2010 07:40:01 5.1 C 5.75 g/m*3 5.1 C 0 km/h
40 16-11-2010 07:52:01 5.2 C 5.85 g/m*3 5.2 C 0 km/h
41 16-11-2010 08:04:01 5.3 C 5.82 g/m*3 5.3 C 0 km/h
42 16-11-2010 08:16:02 5.4 C 5.86 g/m*3 5.4 C 0 km/h
43 16-11-2010 08:28:02 5.4 C 5.79 g/m*3 5.4 C 0 km/h
44 16-11-2010 08:40:01 5.4 C 5.79 g/m*3 5.4 C 0 km/h
45 16-11-2010 08:52:03 5.6 C 5.87 g/m*3 5.6 C 0 km/h
46 16-11-2010 09:04:02 5.7 C 5.84 g/m*3 5.7 C 0 km/h
47 16-11-2010 09:16:02 5.8 C 5.87 g/m*3 5.8 C 0 km/h
48 16-11-2010 09:28:02 5.9 C 5.84 g/m*3 5.9 C 0 km/h
49 16-11-2010 09:40:02 6 C 5.81 g/m*3 6 C 0 km/h
50 16-11-2010 09:52:02 6 C 5.73 g/m*3 6 C 0 km/h
Sensor: Nr:Datum:Temp:Abs-Feuchte:Windchill:Wind:
Aussen-T/F 51 16-11-2010 10:04:01 5.9 C 5.7 g/m*3 5.9 C 0 km/h
52 16-11-2010 10:16:02 6.2 C 5.81 g/m*3 6.2 C 0 km/h
53 16-11-2010 10:28:02 6.2 C 5.74 g/m*3 6.2 C 0 km/h
54 16-11-2010 10:40:01 6.7 C 5.85 g/m*3 6.7 C 0 km/h
55 16-11-2010 10:52:02 6.3 C 5.63 g/m*3 6.3 C 0 km/h
56 16-11-2010 11:04:02 6.4 C 5.66 g/m*3 6.4 C 0 km/h
57 16-11-2010 11:16:02 6.3 C 5.63 g/m*3 6.3 C 0 km/h
58 16-11-2010 11:28:02 6.8 C 5.74 g/m*3 6.8 C 0 km/h
59 16-11-2010 11:40:02 6.4 C 5.51 g/m*3 6.4 C 0 km/h
60 16-11-2010 11:52:02 6.9 C 5.7 g/m*3 6.9 C 0 km/h
61 16-11-2010 12:04:02 7.4 C 5.65 g/m*3 7.4 C 0 km/h
62 16-11-2010 12:16:01 7.5 C 5.52 g/m*3 7.5 C 0 km/h
63 16-11-2010 12:28:01 7.4 C 5.49 g/m*3 7.4 C 0 km/h
64 16-11-2010 12:40:02 7.1 C 5.46 g/m*3 7.1 C 0 km/h
65 16-11-2010 12:52:02 7.3 C 5.53 g/m*3 7.3 C 0 km/h
66 16-11-2010 13:04:02 7.4 C 5.57 g/m*3 7.4 C 0 km/h
67 16-11-2010 13:16:01 7.5 C 5.6 g/m*3 7.5 C 0 km/h
68 16-11-2010 13:28:01 7.7 C 5.59 g/m*3 7.7 C 0 km/h
69 16-11-2010 13:40:01 7.3 C 5.45 g/m*3 7.3 C 0 km/h
70 16-11-2010 13:52:02 7.8 C 5.71 g/m*3 7.8 C 0 km/h
71 16-11-2010 14:04:01 7.8 C 5.63 g/m*3 7.8 C 0 km/h
72 16-11-2010 14:16:02 7.6 C 5.56 g/m*3 7.6 C 0 km/h
73 16-11-2010 14:28:02 7.8 C 5.55 g/m*3 7.8 C 0 km/h
74 16-11-2010 14:40:02 7.6 C 5.4 g/m*3 7.6 C 0 km/h
75 16-11-2010 14:52:01 7.6 C 5.48 g/m*3 7.6 C 0 km/h
Sensor: Nr:Datum:Temp:Abs-Feuchte:Windchill:Wind:
Aussen-T/F 76 16-11-2010 15:04:02 7.5 C 5.52 g/m*3 7.5 C 0 km/h
77 16-11-2010 15:16:03 7.3 C 5.45 g/m*3 7.3 C 0 km/h
78 16-11-2010 15:28:03 7.2 C 5.49 g/m*3 7.2 C 0 km/h
79 16-11-2010 15:40:01 7.1 C 5.54 g/m*3 7.1 C 0 km/h
80 16-11-2010 15:52:01 7.1 C 5.54 g/m*3 7.1 C 0 km/h
81 16-11-2010 16:04:02 7.1 C 5.54 g/m*3 7.1 C 0 km/h
82 16-11-2010 16:16:01 7.1 C 5.54 g/m*3 7.1 C 0 km/h
83 16-11-2010 16:28:01 7.1 C 5.54 g/m*3 7.1 C 0 km/h
84 16-11-2010 16:40:01 7.1 C 5.54 g/m*3 7.1 C 0 km/h
85 16-11-2010 16:52:02 7 C 5.5 g/m*3 7 C 0 km/h
86 16-11-2010 17:04:02 6.9 C 5.62 g/m*3 6.9 C 0 km/h
87 16-11-2010 17:16:02 6.9 C 5.7 g/m*3 6.9 C 0 km/h
88 16-11-2010 17:28:02 6.8 C 5.66 g/m*3 6.8 C 0 km/h
89 16-11-2010 17:40:02 6.8 C 5.66 g/m*3 6.8 C 0 km/h
90 16-11-2010 17:52:02 6.6 C 5.59 g/m*3 6.6 C 0 km/h
91 16-11-2010 18:04:02 6.5 C 5.62 g/m*3 6.5 C 0 km/h
92 16-11-2010 18:16:02 6 C 5.52 g/m*3 6 C 0 km/h
93 16-11-2010 18:28:02 6.2 C 5.74 g/m*3 6.2 C 0 km/h
94 16-11-2010 18:40:02 6.2 C 5.74 g/m*3 6.2 C 0 km/h
95 16-11-2010 18:52:02 6.2 C 5.74 g/m*3 6.2 C 0 km/h
96 16-11-2010 19:04:02 6.2 C 5.74 g/m*3 6.2 C 0 km/h
97 16-11-2010 19:16:02 5.9 C 5.7 g/m*3 5.9 C 0 km/h
98 16-11-2010 19:28:03 5.9 C 5.77 g/m*3 5.9 C 0 km/h
99 16-11-2010 19:40:01 5.8 C 5.73 g/m*3 5.8 C 0 km/h
100 16-11-2010 19:52:02 5.8 C 5.8 g/m*3 5.8 C 0 km/h
Sensor: Nr:Datum:Temp:Abs-Feuchte:Windchill:Wind:
Aussen-T/F 101 16-11-2010 20:04:01 5.7 C 5.76 g/m*3 5.7 C 0 km/h
102 16-11-2010 20:16:02 5.6 C 5.73 g/m*3 5.6 C 0 km/h
103 16-11-2010 20:28:03 5.5 C 5.69 g/m*3 5.5 C 0 km/h
104 16-11-2010 20:40:01 5.5 C 5.69 g/m*3 5.5 C 0 km/h
105 16-11-2010 20:52:02 5.5 C 5.69 g/m*3 5.5 C 0 km/h
106 16-11-2010 21:04:01 5.4 C 5.65 g/m*3 5.4 C 0 km/h
107 16-11-2010 21:16:01 5.5 C 5.69 g/m*3 5.5 C 0 km/h
108 16-11-2010 21:28:01 5.5 C 5.69 g/m*3 5.5 C 0 km/h
109 16-11-2010 21:40:02 5.4 C 5.65 g/m*3 5.4 C 0 km/h
110 16-11-2010 21:52:02 5.3 C 5.61 g/m*3 5.3 C 0 km/h
111 16-11-2010 22:04:02 5.2 C 5.58 g/m*3 5.2 C 0 km/h
112 16-11-2010 22:16:01 5.2 C 5.58 g/m*3 5.2 C 0 km/h
113 16-11-2010 22:28:01 5.3 C 5.68 g/m*3 5.3 C 0 km/h
114 16-11-2010 22:41:04 5.3 C 5.61 g/m*3 5.3 C 0 km/h
115 16-11-2010 22:53:04 5.2 C 5.58 g/m*3 5.2 C 0 km/h
116 16-11-2010 23:05:04 5.1 C 5.61 g/m*3 5.1 C 0 km/h
117 16-11-2010 23:17:04 4.4 C 5.42 g/m*3 4.4 C 0 km/h
118 16-11-2010 23:29:04 4.4 C 5.55 g/m*3 4.4 C 0 km/h
119 16-11-2010 23:41:04 4.5 C 5.65 g/m*3 4.5 C 0 km/h
120 16-11-2010 23:53:04 4.6 C 5.69 g/m*3 4.6 C 0 km/h

Legende:
   Min
   Max


Maximal/Minimal-Werte vom 16.11.2010 - 16.11.2010

Sensor Min Max Avg
Temp
(Aussen-T/F)
4.4 °C
16-11-2010  23:17:04
7.8 °C
16-11-2010  13:52:02
6.01 °C
Abs-Feuchte
(Aussen-T/F)
5.4 g/m*3
16-11-2010  14:40:02
6.28 g/m*3
16-11-2010  03:16:04
5.71 g/m*3
Windchill
(Aussen-T/F)
4.4 C
16-11-2010  23:17:04
7.8 C
16-11-2010  13:52:02
5.96 C

Die Daten stammen von einer Davis Vantage Pro 2 Wetter-Station und werden unter Linux mit der Software wview2wettercgi und aufbereitet. Alle Angaben erfolgen ohne Gewähr für ihre Vollständigkeit oder Richtigkeit.
Kontakt: Rainer Krienke krienke@uni-koblenz.de . Meine Webseiten an der Uni Koblenz oder privat.
Version: $Revision: 0.78 $